Acushnet, Massachusetts
Current Conditions -  °F | °C
As of 9:53 PM on Tuesday 21 Oct 2014 (Local Time) from KEWB Reporting Station
Scattered Clouds Scattered Clouds  
Wind Chill: 57°   Ceiling: Unl
Heat Index: 57°   Visibility: 10mi
Dew Point: 55°   Wind: 5mph
Humidity: 93%   Direction: 340°NNW
Pressure: 29.94"   Gusts: NA
Location:  41.68°N, 70.91°W
Report Text: KEWB 220153Z AUTO 34004KT 10SM SCT007 14/13 A2994 RMK AO2 SLP137 LAST AUGMENTED OBS T01390128
Loading
Personal Weather Stations






























Interactive Weather Map
Tropical Storm Tracking
New forecast layout! Learn more

10-Day Weather Forecast

Advertisements
Track Severe Weather on mobile